Siloam Springs, AR (72761)

4:28 PM CST on December 04, 2016 (GMT -0600)
Lake Forrest Heights | | Change Station

Elev 1148 ft 36.22 °N, 94.54 °W | Updated 11 seconds ago

Mostly Cloudy
Mostly Cloudy
46.7 °F
Feels Like 47 °F
N
0.0
Wind Variable Wind from North

Today
High -- | Low -- °F
--% Chance of Precip.
Yesterday
High -- | Low -- °F
Precip. -- in
Pressure 30.03 in
Visibility 10.0 miles
Clouds Mostly Cloudy 2200 ft
Windchill 47 °F
Dew Point 41 °F
Humidity 81%
Rainfall 0.15 in
Snow Depth Not available.
7:13 AM 5:03 PM
Waxing Crescent, 26% visible
METAR KSLG 042215Z AUTO 31005KT 10SM BKN022 07/03 A3003 RMK AO1
Pressure 30.03 in
Visibility 10.0 miles
Clouds Mostly Cloudy 2200 ft
Windchill 47 °F
Dew Point 41 °F
Humidity 81%
Rainfall 0.15 in
Snow Depth Not available.
7:13 AM 5:03 PM
Waxing Crescent, 26% visible
METAR KSLG 042215Z AUTO 31005KT 10SM BKN022 07/03 A3003 RMK AO1

10-Day Weather Forecast

Almanac

Astronomy

Dec. 04, 2016 Rise Set
Actual Time
Civil Twilight
Nautical Twilight
Astronomical Twilight
Moon
Length of Visible Light
Length of Day
Tomorrow will be .
, % of the Moon is Illuminated

Today's Extremes

State Highs State Lows

Community

WunderPhotos

Upload Photos

1,955,684 photos uploaded!

WunderBlog® & News

Nearby

Air Quality

  Air Quality AQ Index Pollutant
Not available.

Snow Depth

Station Depth Elevation

Earthquake Activity

City Distance Mag. Time & Date
Minimum magnitude displayed is 2.5.

Coastal Water Temperatures

Place Temperature

Stations

Nearby Weather Stations

Station Location Temp. Windchill Dew Point Humidity Wind Precip. Elev Updated Type
                   

Watches & Warnings

There are currently no watches in effect.